Tiempo atmosférico en la estación meteorológica de Alhama de Murcia, Murcia (157 m.)

Fecha
DESCASC
Temp. máxima en grados centígrados (hora)
DESCASC
Temp. mínima en grados centígrados (hora)
DESCASC
Temp. media en grados centígrados
DESCASC
Racha de viento máxima en m/sg (hora)
DESCASC
Velocidad máxima media en intervalos de 10 minutos(hora)
DESCASC
Precipitaciones diarias en mm
DESCASC
Precipitaciones de 00:00 a 06:00 en mm
DESCASC
Precipitaciones de 06:00 a 12:00 en mm
DESCASC
Precipitaciones de 12:00 a 18:00 en mm
DESCASC
Precipitaciones de 18:00 a 24:00 en mm
DESCASC
24-09-2017 -- (--) -- (--) -- 9.17 (21:40) 5.83 (19:50) 0 0 0 0 0
23-09-2017 -- (--) -- (--) -- 6.39 (17:30) 3.89 (19:50) 0 0 0 0 0
22-09-2017 -- (--) -- (--) -- 9.72 (16:40) 6.11 (16:40) 0 0 0 0 0
21-09-2017 -- (--) -- (--) -- 6.39 (16:00) 3.33 (18:50) 0 0 0 0 0
20-09-2017 -- (--) -- (--) -- 8.89 (16:00) 4.72 (15:10) 0 0 0 0 0
19-09-2017 -- (--) -- (--) -- 11.11 (20:10) 6.94 (19:50) 0 0 0 0 0
18-09-2017 -- (--) -- (--) -- 8.61 (18:10) 5.28 (17:20) 0 0 0 0 0
17-09-2017 -- (--) -- (--) -- 10.28 (18:50) 5.83 (21:00) 0 0 0 0 0
16-09-2017 -- (--) -- (--) -- 9.72 (18:20) 5.28 (17:30) 0 0 0 0 0
15-09-2017 -- (--) -- (--) -- 12.5 (17:20) 7.78 (17:10) 0 0 0 0 0
14-09-2017 -- (--) -- (--) -- 9.44 (19:20) 6.39 (19:20) 0 0 0 0 0
13-09-2017 -- (--) -- (--) -- 9.17 (15:20) 4.44 (16:50) 0 0 0 0 0
12-09-2017 31.6 (14:00) 17 (00:00) 24.3 7.78 (17:10) 4.72 (15:50) 0 0 0 0 0
11-09-2017 -- (--) -- (--) -- 11.11 (18:20) 7.22 (18:20) 0 0 0 0 0
10-09-2017 -- (--) -- (--) -- 10 (12:30) 6.67 (18:50) 0 0 0 0 0
09-09-2017 -- (--) -- (--) -- 9.17 (21:50) 5 (21:30) 0 0 0 0 0
08-09-2017 -- (--) -- (--) -- 9.17 (15:20) 5.83 (15:50) 0 0 0 0 0
07-09-2017 -- (--) -- (--) -- 8.61 (18:30) 5.28 (18:10) 0.6 0 0.4 0.2 0
06-09-2017 33 (16:50) 19 (00:00) 26 6.94 (17:40) 3.89 (17:50) 0 0 0 0 0
05-09-2017 32.5 (17:00) 20.8 (00:00) 26.6 8.61 (15:10) 4.17 (19:30) 0 0 0 0 0
04-09-2017 34.3 (17:50) 18.9 (00:00) 26.6 10.28 (16:40) 5 (20:20) 0 0 0 0 0
03-09-2017 31.7 (17:40) 20.2 (00:00) 26 9.44 (20:40) 6.11 (21:00) 0 0 0 0 0
02-09-2017 29.2 (17:40) 21 (00:00) 25.1 7.5 (20:20) 4.17 (19:10) 0 0 0 0 0
01-09-2017 29 (16:20) 20.6 (00:00) 24.8 8.89 (20:20) 5 (15:20) 0 0 0 0 0
31-08-2017 30.4 (16:10) 19.4 (00:00) 24.9 6.39 (16:30) 3.89 (17:00) 0.2 0 0.2 0 0
30-08-2017 24.1 (18:10) 18.5 (00:00) 21.3 10.83 (15:10) 6.39 (15:10) 15 5 5.6 4.4 0
29-08-2017 25.8 (17:10) 18.9 (00:00) 22.3 6.94 (14:30) 4.17 (14:40) 24.8 0.6 4.8 0.4 19
28-08-2017 29.4 (17:20) 22.6 (00:00) 26 11.94 (14:30) 6.67 (14:30) 1.2 0 1 0.2 0
27-08-2017 31.3 (17:50) 21.9 (00:00) 26.6 8.06 (00:30) 5.28 (00:40) 0 0 0 0 0
26-08-2017 34.8 (16:50) 21.9 (00:00) 28.3 8.06 (19:50) 5.28 (20:00) 0 0 0 0 0

Gráficas

Temp. máximas Temp. mínimas Temp. medias Precipitaciones Rachas de viento máximas Velocidades máximas media en intervalos de 10 minutos

Datos horarios

Fecha y hora oficial Temperatura (ºC) Velocidad del viento (km/h) Dirección del viento Racha (km/h) Dirección de racha Precipitación (mm) Presión (hPa) Tendencia (hPa) Humedad (%)
2017-09-24 23:00:00 22.9 15 Sudoeste 30 Sudoeste 0 -- -- 59
2017-09-24 22:00:00 23.6 19 Sudoeste 33 Sur 0 -- -- 64
2017-09-24 21:00:00 24.7 13 Sur 30 Sur 0 -- -- 50
2017-09-24 20:00:00 24.8 18 Sur 31 Sudoeste 0 -- -- 43
2017-09-24 19:00:00 29.2 15 Sur 27 Sudoeste 0 -- -- 25
2017-09-24 18:00:00 30.9 16 Sur 27 Sur 0 -- -- 28
2017-09-24 17:00:00 31.8 18 Sur 31 Sudoeste 0 -- -- 33
2017-09-24 16:00:00 32.5 15 Sudoeste 27 Sudoeste 0 -- -- 28
2017-09-24 15:00:00 31.7 14 Sudoeste 27 Sur 0 -- -- 29
2017-09-24 14:00:00 30.3 10 Sudoeste 24 Sudoeste 0 -- -- 33
2017-09-24 13:00:00 27.9 9 Sudoeste 18 Sur 0 -- -- 44
2017-09-24 12:00:00 25.9 10 Sudoeste 18 Oeste 0 -- -- 54
2017-09-24 11:00:00 22.5 3 Sudoeste 9 Sudoeste 0 -- -- 67
2017-09-24 10:00:00 18.7 6 Sudoeste 8 Sur 0 -- -- 82
2017-09-24 09:00:00 15.6 2 Sudoeste 4 Sudoeste 0 -- -- 96
2017-09-24 08:00:00 14.2 4 Sudoeste 6 Sudoeste 0 -- -- 96
2017-09-24 07:00:00 14.4 0 Calma 7 Sudoeste 0 -- -- 95
2017-09-24 06:00:00 14.9 4 Sudoeste 6 Sudoeste 0 -- -- 95
2017-09-24 05:00:00 15.4 2 Sudoeste 4 Sur 0 -- -- 95
2017-09-24 04:00:00 15.8 0 Calma 5 Sur 0 -- -- 93
2017-09-24 03:00:00 16.2 3 Sur 6 Sur 0 -- -- 91
2017-09-24 02:00:00 17 5 Sudoeste 6 Sudoeste 0 -- -- 90
2017-09-24 01:00:00 17.8 2 Este 4 Sudoeste 0 -- -- 88
2017-09-24 00:00:00 18.7 3 Sudoeste 8 Sur 0 -- -- 85
2017-09-23 23:00:00 19.9 9 Sur 16 Sur 0 -- -- 78
2017-09-23 22:00:00 20.7 8 Sur 12 Sur 0 -- -- 73
2017-09-23 21:00:00 21.9 6 Sudeste 22 Nordeste 0 -- -- 68
2017-09-23 20:00:00 23.7 10 Nordeste 22 Nordeste 0 -- -- 61
2017-09-23 19:00:00 26.4 12 Nordeste 21 Norte 0 -- -- 50
2017-09-23 18:00:00 27.6 10 Nordeste 23 Norte 0 -- -- 47
2017-09-23 17:00:00 28 9 Nordeste 19 Nordeste 0 -- -- 44
2017-09-23 16:00:00 27.4 8 Nordeste 22 Norte 0 -- -- 48
2017-09-23 15:00:00 25.6 9 Norte 21 Nordeste 0 -- -- 54
2017-09-23 14:00:00 25.9 8 Nordeste 19 Nordeste 0 -- -- 55
2017-09-23 13:00:00 24.3 7 Nordeste 16 Este 0 -- -- 61
2017-09-23 12:00:00 23.7 8 Nordeste 13 Norte 0 -- -- 62
2017-09-23 11:00:00 22.2 5 Nordeste 10 Nordeste 0 -- -- 67
2017-09-23 10:00:00 20.6 4 Nordeste 9 Nordeste 0 -- -- 76
2017-09-23 09:00:00 18.7 5 Nordeste 8 Este 0 -- -- 84
2017-09-23 08:00:00 18.3 4 Nordeste 14 Norte 0 -- -- 83
2017-09-23 07:00:00 19.4 7 Norte 13 Nordeste 0 -- -- 78
2017-09-23 06:00:00 19.8 7 Nordeste 14 Nordeste 0 -- -- 78
2017-09-23 05:00:00 19.6 8 Nordeste 14 Este 0 -- -- 81
2017-09-23 04:00:00 19.6 6 Nordeste 10 Nordeste 0 -- -- 85
2017-09-23 03:00:00 19.5 6 Nordeste 10 Nordeste 0 -- -- 86
2017-09-23 02:00:00 19.4 4 Nordeste 6 Nordeste 0 -- -- 88
2017-09-23 01:00:00 19.9 3 Norte 6 Nordeste 0 -- -- 85
2017-09-23 00:00:00 20.4 0 Calma 3 Sudeste 0 -- -- 84
2017-09-22 23:00:00 20.3 0 Calma 8 Noroeste 0 -- -- 84
2017-09-22 22:00:00 20.7 5 Norte 15 Norte 0 -- -- 80
2017-09-22 21:00:00 21.9 7 Nordeste 16 Nordeste 0 -- -- 71
2017-09-22 20:00:00 23.1 8 Nordeste 30 Nordeste 0 -- -- 63
2017-09-22 19:00:00 24.9 15 Nordeste 32 Nordeste 0 -- -- 56
2017-09-22 18:00:00 26.2 20 Nordeste 32 Nordeste 0 -- -- 50
2017-09-22 17:00:00 27.3 18 Nordeste 35 Nordeste 0 -- -- 48
2017-09-22 16:00:00 27.7 15 Este 27 Este 0 -- -- 48
2017-09-22 15:00:00 27.3 14 Nordeste 27 Norte 0 -- -- 50
2017-09-22 14:00:00 26.3 14 Nordeste 22 Nordeste 0 -- -- 56
2017-09-22 13:00:00 25.6 12 Nordeste 21 Nordeste 0 -- -- 58
2017-09-22 12:00:00 -- 9 Norte 15 Nordeste 0 -- -- --
2017-09-22 11:00:00 -- 9 Nordeste 17 Nordeste 0 -- -- --
2017-09-22 10:00:00 -- 5 Nordeste 9 Nordeste 0 -- -- --
2017-09-22 09:00:00 -- 5 Nordeste 6 Nordeste 0 -- -- --
2017-09-22 08:00:00 -- 4 Nordeste 6 Nordeste 0 -- -- --
2017-09-22 07:00:00 -- 4 Norte 6 Norte 0 -- -- --
2017-09-22 06:00:00 -- 4 Norte 10 Nordeste 0 -- -- --
2017-09-22 05:00:00 -- 5 Nordeste 6 Nordeste 0 -- -- --
2017-09-22 04:00:00 -- 0 Calma 6 Nordeste 0 -- -- --
2017-09-22 03:00:00 -- 5 Nordeste 6 Nordeste 0 -- -- --
2017-09-22 02:00:00 -- 5 Nordeste 6 Nordeste 0 -- -- --
2017-09-22 01:00:00 -- 4 Nordeste 5 Nordeste 0 -- -- --
2017-09-22 00:00:00 -- 3 Nordeste 5 Nordeste 0 -- -- --
2017-09-21 23:00:00 -- 0 Calma 8 Nordeste 0 -- -- --
2017-09-21 22:00:00 -- 6 Sudeste 10 Sudoeste 0 -- -- --
2017-09-21 21:00:00 -- 4 Oeste 8 Oeste 0 -- -- --
2017-09-21 20:00:00 -- 8 Norte 18 Norte 0 -- -- --
2017-09-21 19:00:00 -- 11 Norte 18 Nordeste 0 -- -- --
2017-09-21 18:00:00 -- 8 Nordeste 21 Nordeste 0 -- -- --
2017-09-21 17:00:00 -- 6 Norte 19 Norte 0 -- -- --
2017-09-21 16:00:00 -- 10 Norte 23 Noroeste 0 -- -- --
2017-09-21 15:00:00 -- 6 Noroeste 13 Este 0 -- -- --
2017-09-21 14:00:00 -- 6 Norte 15 Norte 0 -- -- --
2017-09-21 13:00:00 -- 6 Nordeste 18 Nordeste 0 -- -- --
2017-09-21 12:00:00 -- 11 Nordeste 19 Nordeste 0 -- -- --
2017-09-21 11:00:00 -- 8 Nordeste 12 Este 0 -- -- --
2017-09-21 10:00:00 -- 5 Norte 8 Norte 0 -- -- --
2017-09-21 09:00:00 -- 3 Nordeste 6 Nordeste 0 -- -- --
2017-09-21 08:00:00 -- 0 Calma 5 Sudoeste 0 -- -- --
2017-09-21 07:00:00 -- 2 Nordeste 6 Nordeste 0 -- -- --
2017-09-21 06:00:00 -- 5 Nordeste 6 Nordeste 0 -- -- --
2017-09-21 05:00:00 -- 4 Nordeste 7 Nordeste 0 -- -- --
2017-09-21 04:00:00 -- 0 Calma 2 Este 0 -- -- --
2017-09-21 03:00:00 -- 0 Calma 4 Norte 0 -- -- --
2017-09-21 02:00:00 -- 4 Nordeste 10 Sur 0 -- -- --
2017-09-21 01:00:00 -- 7 Sur 9 Sur 0 -- -- --
2017-09-21 00:00:00 -- 3 Sudoeste 6 Sudoeste 0 -- -- --
2017-09-20 23:00:00 -- 3 Norte 9 Nordeste 0 -- -- --
2017-09-20 22:00:00 -- 4 Nordeste 11 Oeste 0 -- -- --
2017-09-20 21:00:00 -- 4 Oeste 14 Sudoeste 0 -- -- --
2017-09-20 20:00:00 -- 4 Sudeste 22 Sur 0 -- -- --
2017-09-20 19:00:00 -- 12 Sur 26 Sudeste 0 -- -- --
2017-09-20 18:00:00 -- 13 Sur 30 Sudoeste 0 -- -- --
2017-09-20 17:00:00 -- 15 Sur 27 Sudoeste 0 -- -- --
2017-09-20 16:00:00 -- 15 Sur 32 Sur 0 -- -- --
2017-09-20 15:00:00 -- 14 Sur 27 Sur 0 -- -- --
2017-09-20 14:00:00 -- 13 Sudoeste 25 Sudoeste 0 -- -- --
2017-09-20 13:00:00 -- 12 Sur 27 Sur 0 -- -- --
2017-09-20 12:00:00 -- 2 Sudoeste 9 Este 0 -- -- --
2017-09-20 11:00:00 -- 3 Nordeste 9 Nordeste 0 -- -- --
2017-09-20 10:00:00 -- 3 Nordeste 5 Nordeste 0 -- -- --
2017-09-20 09:00:00 -- 3 Nordeste 5 Este 0 -- -- --
2017-09-20 08:00:00 -- 0 Calma 7 Nordeste 0 -- -- --
2017-09-20 07:00:00 -- 5 Nordeste 7 Nordeste 0 -- -- --
2017-09-20 06:00:00 -- 3 Nordeste 8 Nordeste 0 -- -- --
2017-09-20 05:00:00 -- 5 Nordeste 9 Nordeste 0 -- -- --
2017-09-20 04:00:00 -- 6 Nordeste 8 Nordeste 0 -- -- --
2017-09-20 03:00:00 -- 3 Sur 6 Sudoeste 0 -- -- --
2017-09-20 02:00:00 -- 0 Calma 7 Sudeste 0 -- -- --
2017-09-20 01:00:00 -- 6 Sudeste 19 Sur 0 -- -- --
2017-09-20 00:00:00 -- 14 Sudoeste 24 Sudoeste 0 -- -- --
2017-09-19 23:00:00 -- 13 Sur 30 Sudoeste 0 -- -- --
2017-09-19 22:00:00 -- 18 Sur 30 Sur 0 -- -- --
2017-09-19 21:00:00 -- 19 Sur 40 Sur 0 -- -- --
2017-09-19 20:00:00 -- 23 Sur 37 Sudoeste 0 -- -- --
2017-09-19 19:00:00 -- 20 Sur 39 Sudoeste 0 -- -- --
2017-09-19 18:00:00 -- 19 Sudoeste 31 Sur 0 -- -- --
2017-09-19 17:00:00 -- 9 Este 22 Norte 0 -- -- --
2017-09-19 16:00:00 -- 13 Nordeste 26 Nordeste 0 -- -- --
2017-09-19 15:00:00 -- 10 Nordeste 23 Norte 0 -- -- --
2017-09-19 14:00:00 -- 10 Nordeste 23 Este 0 -- -- --
2017-09-19 13:00:00 -- 9 Nordeste 16 Este 0 -- -- --
2017-09-19 12:00:00 -- 9 Este 17 Nordeste 0 -- -- --
2017-09-19 11:00:00 -- 6 Nordeste 14 Nordeste 0 -- -- --
2017-09-19 10:00:00 -- 8 Nordeste 13 Norte 0 -- -- --
2017-09-19 09:00:00 -- 5 Nordeste 9 Nordeste 0 -- -- --
2017-09-19 08:00:00 -- 4 Nordeste 7 Norte 0 -- -- --
2017-09-19 07:00:00 -- 5 Nordeste 9 Nordeste 0 -- -- --
2017-09-19 06:00:00 -- 7 Nordeste 14 Nordeste 0 -- -- --
2017-09-19 05:00:00 -- 10 Norte 18 Nordeste 0 -- -- --
2017-09-19 04:00:00 -- 12 Nordeste 19 Nordeste 0 -- -- --
2017-09-19 03:00:00 -- 13 Nordeste 18 Nordeste 0 -- -- --
2017-09-19 02:00:00 -- 10 Nordeste 13 Nordeste 0 -- -- --
2017-09-19 01:00:00 -- 10 Nordeste 22 Nordeste 0 -- -- --
2017-09-19 00:00:00 -- 5 Nordeste 8 Este 0 -- -- --
2017-09-18 23:00:00 -- 2 Nordeste 8 Sur 0 -- -- --
2017-09-18 22:00:00 -- 5 Sur 12 Sudoeste 0 -- -- --
2017-09-18 21:00:00 -- 11 Sudoeste 24 Sudoeste 0 -- -- --
2017-09-18 20:00:00 -- 12 Sudoeste 27 Sudoeste 0 -- -- --
2017-09-18 19:00:00 -- 14 Sudoeste 31 Sudoeste 0 -- -- --
2017-09-18 18:00:00 -- 16 Sudoeste 31 Sudoeste 0 -- -- --
2017-09-18 17:00:00 -- 17 Sur 31 Sur 0 -- -- --
2017-09-18 16:00:00 -- 6 Nordeste 12 Nordeste 0 -- -- --
2017-09-18 15:00:00 -- 3 Noroeste 9 Sudoeste 0 -- -- --
2017-09-18 14:00:00 -- 4 Sudoeste 11 Sudoeste 0 -- -- --
2017-09-18 13:00:00 -- 3 Noroeste 8 Nordeste 0 -- -- --
2017-09-18 12:00:00 -- 3 Este 12 Oeste 0 -- -- --
2017-09-18 11:00:00 -- 8 Sudoeste 16 Sudoeste 0 -- -- --
2017-09-18 10:00:00 -- 9 Sudoeste 17 Sudoeste 0 -- -- --
2017-09-18 09:00:00 -- 4 Sudoeste 7 Sudoeste 0 -- -- --
2017-09-18 08:00:00 -- 3 Oeste 9 Sur 0 -- -- --
2017-09-18 07:00:00 -- 8 Sur 9 Sur 0 -- -- --
2017-09-18 06:00:00 -- 4 Sudoeste 6 Oeste 0 -- -- --
2017-09-18 05:00:00 -- 5 Nordeste 6 Nordeste 0 -- -- --
2017-09-18 04:00:00 -- 0 Calma 6 Sudeste 0 -- -- --
2017-09-18 03:00:00 -- 3 Sur 13 Sudoeste 0 -- -- --
2017-09-18 02:00:00 -- 9 Sudoeste 20 Sudoeste 0 -- -- --
2017-09-18 01:00:00 -- 12 Sudoeste 20 Sudoeste 0 -- -- --
2017-09-18 00:00:00 -- 10 Sudoeste 21 Sur 0 -- -- --
2017-09-17 23:00:00 -- 12 Sur 27 Sur 0 -- -- --
2017-09-17 22:00:00 -- 14 Sur 28 Sur 0 -- -- --
2017-09-17 21:00:00 -- 21 Sur 31 Sur 0 -- -- --
2017-09-17 20:00:00 -- 15 Sur 27 Sudoeste 0 -- -- --
2017-09-17 19:00:00 -- 17 Sur 37 Sudoeste 0 -- -- --
2017-09-17 18:00:00 -- 19 Sur 34 Sudoeste 0 -- -- --
2017-09-17 17:00:00 -- 15 Sur 29 Sudoeste 0 -- -- --
2017-09-17 16:00:00 -- 11 Sur 27 Sur 0 -- -- --
2017-09-17 15:00:00 -- 14 Sudoeste 27 Sudoeste 0 -- -- --
2017-09-17 14:00:00 -- 13 Sudoeste 24 Sur 0 -- -- --
2017-09-17 13:00:00 -- 9 Sudoeste 19 Sudoeste 0 -- -- --
2017-09-17 12:00:00 -- 6 Oeste 13 Oeste 0 -- -- --
2017-09-17 11:00:00 -- 3 Nordeste 7 Nordeste 0 -- -- --
2017-09-17 10:00:00 -- 3 Nordeste 6 Norte 0 -- -- --
2017-09-17 09:00:00 -- 2 Norte 6 Este 0 -- -- --
2017-09-17 08:00:00 -- 3 Nordeste 6 Nordeste 0 -- -- --
2017-09-17 07:00:00 -- 5 Nordeste 7 Este 0 -- -- --
2017-09-17 06:00:00 -- 2 Norte 9 Este 0 -- -- --
2017-09-17 05:00:00 -- 6 Nordeste 7 Este 0 -- -- --
2017-09-17 04:00:00 -- 0 Calma 7 Nordeste 0 -- -- --
2017-09-17 03:00:00 -- 3 Nordeste 8 Nordeste 0 -- -- --
2017-09-17 02:00:00 -- 4 Nordeste 9 Nordeste 0 -- -- --
2017-09-17 01:00:00 -- 5 Nordeste 10 Nordeste 0 -- -- --
2017-09-17 00:00:00 -- 4 Nordeste 8 Nordeste 0 -- -- --
2017-09-16 23:00:00 -- 4 Nordeste 7 Norte 0 -- -- --
2017-09-16 22:00:00 -- 3 Noroeste 8 Norte 0 -- -- --
2017-09-16 21:00:00 -- 4 Norte 15 Norte 0 -- -- --
2017-09-16 20:00:00 -- 4 Noroeste 21 Sudeste 0 -- -- --
2017-09-16 19:00:00 -- 8 Sudeste 35 Sudeste 0 -- -- --
2017-09-16 18:00:00 -- 16 Sudeste 31 Sudeste 0 -- -- --
2017-09-16 17:00:00 -- 15 Sudeste 26 Sudeste 0 -- -- --
2017-09-16 16:00:00 -- 10 Sur 25 Sur 0 -- -- --
2017-09-16 15:00:00 -- 11 Sudoeste 20 Sur 0 -- -- --
2017-09-16 14:00:00 -- 4 Sur 12 Nordeste 0 -- -- --
2017-09-16 13:00:00 -- 5 Este 16 Este 0 -- -- --
2017-09-16 12:00:00 -- 5 Norte 13 Norte 0 -- -- --
2017-09-16 11:00:00 -- 5 Nordeste 10 Nordeste 0 -- -- --
2017-09-16 10:00:00 -- 5 Nordeste 15 Nordeste 0 -- -- --
2017-09-16 09:00:00 -- 9 Nordeste 14 Nordeste 0 -- -- --
2017-09-16 08:00:00 -- 9 Nordeste 16 Nordeste 0 -- -- --
2017-09-16 07:00:00 -- 7 Nordeste 14 Nordeste 0 -- -- --
2017-09-16 06:00:00 -- 8 Este 12 Nordeste 0 -- -- --
2017-09-16 05:00:00 -- 7 Norte 12 Nordeste 0 -- -- --
2017-09-16 04:00:00 -- 6 Nordeste 14 Nordeste 0 -- -- --
2017-09-16 03:00:00 -- 8 Nordeste 17 Nordeste 0 -- -- --
2017-09-16 02:00:00 -- 12 Nordeste 25 Norte 0 -- -- --
2017-09-16 01:00:00 -- 14 Nordeste 27 Nordeste 0 -- -- --
2017-09-16 00:00:00 -- 15 Nordeste 31 Nordeste 0 -- -- --
2017-09-15 23:00:00 -- 20 Nordeste 36 Nordeste 0 -- -- --
2017-09-15 22:00:00 -- 18 Nordeste 32 Nordeste 0 -- -- --
2017-09-15 21:00:00 -- 16 Sudeste 32 Este 0 -- -- --
2017-09-15 20:00:00 -- 7 Sudeste 26 Este 0 -- -- --
2017-09-15 19:00:00 -- 16 Sudeste 42 Sudeste 0 -- -- --
2017-09-15 18:00:00 -- 24 Sudeste 45 Sudeste 0 -- -- --
2017-09-15 17:00:00 -- 23 Sudeste 44 Sudeste 0 -- -- --
2017-09-15 16:00:00 -- 13 Sudeste 32 Este 0 -- -- --
2017-09-15 15:00:00 -- 5 Noroeste 18 Norte 0 -- -- --
2017-09-15 14:00:00 -- 8 Este 18 Nordeste 0 -- -- --
2017-09-15 13:00:00 -- 10 Nordeste 19 Nordeste 0 -- -- --
2017-09-15 12:00:00 -- 9 Nordeste 17 Nordeste 0 -- -- --
2017-09-15 11:00:00 -- 9 Nordeste 15 Nordeste 0 -- -- --
2017-09-15 10:00:00 -- 8 Norte 14 Norte 0 -- -- --
2017-09-15 09:00:00 -- 9 Norte 13 Norte 0 -- -- --
2017-09-15 08:00:00 -- 8 Norte 15 Nordeste 0 -- -- --
2017-09-15 07:00:00 -- 11 Nordeste 23 Nordeste 0 -- -- --
2017-09-15 06:00:00 -- 13 Nordeste 23 Nordeste 0 -- -- --
2017-09-15 05:00:00 -- 14 Nordeste 26 Nordeste 0 -- -- --
2017-09-15 04:00:00 -- 14 Nordeste 20 Norte 0 -- -- --
2017-09-15 03:00:00 -- 4 Norte 13 Norte 0 -- -- --
2017-09-15 02:00:00 -- 13 Este 20 Este 0 -- -- --
2017-09-15 01:00:00 -- 6 Sur 15 Sudoeste 0 -- -- --
2017-09-15 00:00:00 -- 10 Oeste 17 Noroeste 0 -- -- --
2017-09-14 23:00:00 -- 9 Sudoeste 21 Sudoeste 0 -- -- --
2017-09-14 22:00:00 -- 13 Sudoeste 24 Sudoeste 0 -- -- --
2017-09-14 21:00:00 -- 15 Sudoeste 30 Sudoeste 0 -- -- --
2017-09-14 20:00:00 -- 19 Sudoeste 34 Oeste 0 -- -- --
2017-09-14 19:00:00 -- 18 Sudoeste 33 Sudoeste 0 -- -- --
2017-09-14 18:00:00 -- 19 Sudoeste 31 Sudoeste 0 -- -- --
2017-09-14 17:00:00 -- 16 Sudoeste 32 Sudoeste 0 -- -- --
2017-09-14 16:00:00 -- 20 Sudoeste 31 Sudoeste 0 -- -- --
2017-09-14 15:00:00 -- 16 Oeste 26 Oeste 0 -- -- --
2017-09-14 14:00:00 -- 10 Sudoeste 20 Sudoeste 0 -- -- --
2017-09-14 13:00:00 -- 11 Sudoeste 22 Oeste 0 -- -- --
2017-09-14 12:00:00 -- 10 Sudoeste 21 Sudoeste 0 -- -- --
2017-09-14 11:00:00 -- 9 Sudoeste 18 Sudoeste 0 -- -- --
2017-09-14 10:00:00 -- 10 Sudoeste 22 Sudoeste 0 -- -- --
2017-09-14 09:00:00 -- 5 Oeste 10 Sudoeste 0 -- -- --
2017-09-14 08:00:00 -- 6 Sudoeste 8 Sudoeste 0 -- -- --
2017-09-14 07:00:00 -- 4 Sudoeste 12 Este 0 -- -- --
2017-09-14 06:00:00 -- 6 Este 9 Este 0 -- -- --
2017-09-14 05:00:00 -- 0 Calma 5 Sudoeste 0 -- -- --
2017-09-14 04:00:00 -- 2 Sudoeste 4 Norte 0 -- -- --
2017-09-14 03:00:00 -- 0 Calma 2 Sur 0 -- -- --
2017-09-14 02:00:00 -- 0 Calma 4 Sudeste 0 -- -- --
2017-09-14 01:00:00 -- 0 Calma 2 Sudoeste 0 -- -- --
2017-09-14 00:00:00 -- 0 Calma 4 Oeste 0 -- -- --
2017-09-13 23:00:00 -- 0 Calma 5 Noroeste 0 -- -- --
2017-09-13 22:00:00 -- 4 Norte 10 Este 0 -- -- --
2017-09-13 21:00:00 -- 3 Oeste 15 Sudoeste 0 -- -- --
2017-09-13 20:00:00 -- 10 Sudeste 30 Sur 0 -- -- --
2017-09-13 19:00:00 -- 14 Sur 30 Sur 0 -- -- --
2017-09-13 18:00:00 -- 14 Sur 28 Sur 0 -- -- --
2017-09-13 17:00:00 -- 10 Sur 25 Sudeste 0 -- -- --
2017-09-13 16:00:00 -- 10 Sur 33 Sudoeste 0 -- -- --
2017-09-13 15:00:00 -- 10 Sur 28 Sur 0 -- -- --
2017-09-13 14:00:00 -- 4 Nordeste 12 Sudeste 0 -- -- --
2017-09-13 13:00:00 -- 2 Norte 8 Sudoeste 0 -- -- --
2017-09-13 12:00:00 -- 3 Nordeste 11 Nordeste 0 -- -- --
2017-09-13 11:00:00 -- 6 Nordeste 12 Nordeste 0 -- -- --
2017-09-13 10:00:00 -- 5 Nordeste 8 Nordeste 0 -- -- --
2017-09-13 09:00:00 -- 0 Calma 4 Sur 0 -- -- --
2017-09-13 08:00:00 -- 4 Sur 9 Sudoeste 0 -- -- --
2017-09-13 07:00:00 -- 6 Este 8 Este 0 -- -- --
2017-09-13 06:00:00 17.6 4 Nordeste 6 Nordeste 0 -- -- 87
2017-09-13 05:00:00 18 3 Norte 7 Este 0 -- -- 84
2017-09-13 04:00:00 18.3 4 Nordeste 5 Nordeste 0 -- -- 85
2017-09-13 03:00:00 18.9 4 Nordeste 6 Este 0 -- -- 85
2017-09-13 02:00:00 19.4 2 Norte 6 Nordeste 0 -- -- 83
2017-09-13 01:00:00 20 2 Norte 5 Sudeste 0 -- -- 81
2017-09-13 00:00:00 20.7 0 Calma 6 Noroeste 0 -- -- 77
2017-09-12 23:00:00 21.5 2 Oeste 8 Oeste 0 -- -- 72
2017-09-12 22:00:00 22.8 2 Sudoeste 13 Noroeste 0 -- -- 65
2017-09-12 21:00:00 24.3 8 Noroeste 16 Noroeste 0 -- -- 58
2017-09-12 20:00:00 26.6 9 Noroeste 18 Oeste 0 -- -- 51
2017-09-12 19:00:00 28.6 12 Oeste 23 Oeste 0 -- -- 48
2017-09-12 18:00:00 30.4 9 Sudoeste 28 Noroeste 0 -- -- 44
2017-09-12 17:00:00 31.1 11 Norte 24 Nordeste 0 -- -- 41
2017-09-12 16:00:00 30.8 16 Nordeste 28 Nordeste 0 -- -- 43
2017-09-12 15:00:00 31.1 11 Nordeste 28 Nordeste 0 -- -- 42
2017-09-12 14:00:00 31.6 11 Nordeste 18 Nordeste 0 -- -- 30
2017-09-12 13:00:00 30.2 12 Nordeste 24 Nordeste 0 -- -- 30
2017-09-12 12:00:00 29.3 14 Nordeste 24 Este 0 -- -- 34
2017-09-12 11:00:00 29 13 Nordeste 23 Nordeste 0 -- -- 32
2017-09-12 10:00:00 26.8 8 Nordeste 18 Nordeste 0 -- -- 36
2017-09-12 09:00:00 23.5 5 Nordeste 12 Norte 0 -- -- 50
2017-09-12 08:00:00 22.1 6 Nordeste 13 Norte 0 -- -- 43
2017-09-12 07:00:00 19.7 4 Nordeste 12 Nordeste 0 -- -- 56
2017-09-12 06:00:00 18.1 4 Nordeste 8 Sudoeste 0 -- -- 64
2017-09-12 05:00:00 17.6 2 Sur 7 Sur 0 -- -- 67
2017-09-12 04:00:00 17.9 0 Calma 8 Norte 0 -- -- 66
2017-09-12 03:00:00 18.4 0 Calma 10 Sudeste 0 -- -- 63
2017-09-12 02:00:00 19.1 9 Sudoeste 14 Sur 0 -- -- 61
2017-09-12 01:00:00 20.4 5 Sudoeste 18 Sudoeste 0 -- -- 55
2017-09-12 00:00:00 21.5 9 Sudoeste 17 Oeste 0 -- -- 48
2017-09-11 23:00:00 24.5 8 Sudoeste 28 Sur 0 -- -- 40
2017-09-11 22:00:00 26.5 19 Sur 32 Sur 0 -- -- 29
2017-09-11 21:00:00 27.3 23 Sur 37 Sur 0 -- -- 26
2017-09-11 20:00:00 28 23 Sur 39 Sur 0 -- -- 26
2017-09-11 19:00:00 29.6 22 Sur 40 Sur 0 -- -- 26
2017-09-11 18:00:00 30.5 25 Sur 39 Sur 0 -- -- 25
2017-09-11 17:00:00 31.3 22 Sur 37 Sur 0 -- -- 27
2017-09-11 16:00:00 32.8 16 Sur 31 Sudeste 0 -- -- 24
2017-09-11 15:00:00 32.2 12 Sur 26 Sudoeste 0 -- -- 25
2017-09-11 14:00:00 31.3 13 Sur 22 Sur 0 -- -- 24
2017-09-11 13:00:00 -- 9 Sur 18 Sur 0 -- -- 24
2017-09-11 12:00:00 -- 9 Sudoeste 15 Sudoeste 0 -- -- 26
2017-09-11 11:00:00 -- 6 Sudoeste 12 Sudoeste 0 -- -- 37
2017-09-11 10:00:00 -- 6 Sudoeste 12 Sur 0 -- -- 48
2017-09-11 09:00:00 -- 3 Sudoeste 15 Oeste 0 -- -- 72
2017-09-11 08:00:00 -- 6 Sudoeste 17 Sudoeste 0 -- -- 70
2017-09-11 07:00:00 -- 10 Sudoeste 17 Sudoeste 0 -- -- 66
2017-09-11 06:00:00 -- 6 Sudoeste 10 Sudoeste 0 -- -- 78
2017-09-11 05:00:00 -- 8 Sudoeste 17 Oeste 0 -- -- 73
2017-09-11 04:00:00 -- 6 Sudoeste 14 Sur 0 -- -- 78
2017-09-11 03:00:00 -- 11 Sur 18 Sudoeste 0 -- -- 70
2017-09-11 02:00:00 -- 6 Sudoeste 12 Sudoeste 0 -- -- 78
2017-09-11 01:00:00 -- 9 Sudoeste 23 Sur 0 -- -- 66
2017-09-11 00:00:00 -- 14 Sur 28 Sur 0 -- -- 61
2017-09-10 23:00:00 -- 15 Sur 29 Sur 0 -- -- 61
2017-09-10 22:00:00 -- 14 Sur 26 Sur 0 -- -- 55
2017-09-10 21:00:00 -- 15 Sur 29 Sur 0 -- -- 49
2017-09-10 20:00:00 -- 21 Sur 31 Sur 0 -- -- 43
2017-09-10 19:00:00 -- 21 Sur 36 Sur 0 -- -- 34
2017-09-10 18:00:00 -- 11 Norte 31 Nordeste 0 -- -- 19
2017-09-10 17:00:00 -- 12 Norte 29 Norte 0 -- -- 19
2017-09-10 16:00:00 -- 17 Norte 36 Norte 0 -- -- 20
2017-09-10 15:00:00 -- 14 Norte 30 Noroeste 0 -- -- 22
2017-09-10 14:00:00 -- 13 Norte 33 Norte 0 -- -- 26
2017-09-10 13:00:00 -- 21 Norte 36 Norte 0 -- -- 27
2017-09-10 12:00:00 -- 20 Norte 35 Norte 0 -- -- 30
2017-09-10 11:00:00 -- 15 Noroeste 33 Oeste 0 -- -- 34
2017-09-10 10:00:00 -- 12 Norte 29 Noroeste 0 -- -- 39
2017-09-10 09:00:00 -- 9 Norte 18 Noroeste 0 -- -- 42
2017-09-10 08:00:00 -- 8 Nordeste 15 Norte 0 -- -- 51
2017-09-10 07:00:00 -- 5 Norte 18 Noroeste 0 -- -- 49
2017-09-10 06:00:00 -- 8 Noroeste 17 Noroeste 0 -- -- 37
2017-09-10 05:00:00 -- 4 Nordeste 26 Noroeste 0 -- -- 33
2017-09-10 04:00:00 -- 11 Noroeste 24 Noroeste 0 -- -- 30
2017-09-10 03:00:00 -- 9 Noroeste 15 Norte 0 -- -- 42
2017-09-10 02:00:00 -- 2 Sur 5 Este 0 -- -- 84
2017-09-10 01:00:00 -- 3 Nordeste 9 Este 0 -- -- 81
2017-09-10 00:00:00 -- 5 Norte 19 Nordeste 0 -- -- 73
2017-09-09 23:00:00 -- 14 Nordeste 25 Nordeste 0 -- -- 57
2017-09-09 22:00:00 -- 17 Nordeste 33 Nordeste 0 -- -- 32
2017-09-09 21:00:00 -- 12 Nordeste 18 Nordeste 0 -- -- 34
2017-09-09 20:00:00 -- 3 Nordeste 11 Nordeste 0 -- -- 47
2017-09-09 19:00:00 -- 8 Nordeste 17 Nordeste 0 -- -- 40
2017-09-09 18:00:00 -- 10 Nordeste 18 Nordeste 0 -- -- 37
2017-09-09 17:00:00 -- 8 Nordeste 16 Sudoeste 0 -- -- 40
2017-09-09 16:00:00 -- 12 Sudoeste 27 Sudoeste 0 -- -- 18
2017-09-09 15:00:00 -- 16 Sudoeste 28 Sudoeste 0 -- -- 18
2017-09-09 14:00:00 -- 13 Sur 24 Sur 0 -- -- 30
2017-09-09 13:00:00 -- 14 Sudoeste 28 Sur 0 -- -- 24
2017-09-09 12:00:00 -- 6 Sudoeste 19 Sudoeste 0 -- -- 46
2017-09-09 11:00:00 -- 13 Sudoeste 24 Sudoeste 0 -- -- 61
2017-09-09 10:00:00 -- 2 Sudoeste 12 Sudoeste 0 -- -- 92
2017-09-09 09:00:00 -- 2 Sur 12 Sudoeste 0 -- -- 93
2017-09-09 08:00:00 -- 10 Oeste 17 Sudoeste 0 -- -- 94
2017-09-09 07:00:00 -- 6 Sudoeste 10 Sudoeste 0 -- -- 95
2017-09-09 06:00:00 -- 0 Calma 16 Sudoeste 0 -- -- 92
2017-09-09 05:00:00 -- 9 Sudoeste 20 Sudoeste 0 -- -- 92
2017-09-09 04:00:00 -- 9 Sudoeste 17 Sudoeste 0 -- -- 91
2017-09-09 03:00:00 -- 4 Sudoeste 13 Sur 0 -- -- 88
2017-09-09 02:00:00 -- 10 Sur 20 Sur 0 -- -- 85
2017-09-09 01:00:00 -- 12 Sur 20 Sur 0 -- -- 83
2017-09-09 00:00:00 -- 13 Sur 22 Sur 0 -- -- 81
2017-09-08 23:00:00 -- 15 Sur 24 Sur 0 -- -- 77
2017-09-08 22:00:00 -- 12 Sur 20 Sur 0 -- -- 74
2017-09-08 21:00:00 -- 7 Sudoeste 17 Sur 0 -- -- 69
2017-09-08 20:00:00 -- 9 Sur 24 Sudoeste 0 -- -- 62
2017-09-08 19:00:00 -- 12 Sudoeste 26 Sudoeste 0 -- -- 58
2017-09-08 18:00:00 -- 11 Sudeste 32 Sudoeste 0 -- -- 54
2017-09-08 17:00:00 -- 17 Sur 32 Sur 0 -- -- 55
2017-09-08 16:00:00 -- 19 Sur 33 Sur 0 -- -- 55
2017-09-08 15:00:00 -- 13 Sur 29 Sudoeste 0 -- -- 52
2017-09-08 14:00:00 -- 15 Sudoeste 26 Sudoeste 0 -- -- 55
2017-09-08 13:00:00 -- 11 Sudoeste 20 Sudoeste 0 -- -- 58
2017-09-08 12:00:00 -- 10 Sudoeste 19 Sudoeste 0 -- -- 65
2017-09-08 11:00:00 -- 4 Oeste 11 Sur 0 -- -- 78
2017-09-08 10:00:00 -- 3 Sudoeste 7 Sudoeste 0 -- -- 88
2017-09-08 09:00:00 -- 4 Sudoeste 5 Sudoeste 0 -- -- 94
2017-09-08 08:00:00 -- 2 Sudoeste 5 Sur 0 -- -- 94
2017-09-08 07:00:00 -- 4 Sur 6 Sur 0 -- -- 94
2017-09-08 06:00:00 -- 0 Calma 4 Nordeste 0 -- -- 93
2017-09-08 05:00:00 -- 0 Calma 3 Nordeste 0 -- -- 92
2017-09-08 04:00:00 -- 2 Sudeste 8 Sur 0 -- -- 92
2017-09-08 03:00:00 -- 0 Calma 4 Oeste 0 -- -- 89
2017-09-08 02:00:00 -- 2 Norte 13 Sur 0 -- -- 87
2017-09-08 01:00:00 -- 6 Sur 10 Sudeste 0 -- -- 85
2017-09-08 00:00:00 -- 2 Sudoeste 6 Sur 0 -- -- 84
2017-09-07 23:00:00 -- 0 Calma 12 Oeste 0 -- -- 80
2017-09-07 22:00:00 -- 3 Sudoeste 18 Sudoeste 0 -- -- 78
2017-09-07 21:00:00 -- 9 Sudoeste 22 Sudoeste 0 -- -- 73
2017-09-07 20:00:00 -- 13 Sudoeste 28 Sudoeste 0 -- -- 68
2017-09-07 19:00:00 -- 13 Sur 31 Sudeste 0 -- -- 60
2017-09-07 18:00:00 -- 14 Sur 27 Sur 0 -- -- 52
2017-09-07 17:00:00 -- 10 Sudeste 24 Sur 0 -- -- 49
2017-09-07 16:00:00 -- 2 Este 14 Norte 0 -- -- 52
2017-09-07 15:00:00 -- 6 Norte 15 Norte 0 -- -- 52
2017-09-07 14:00:00 -- 9 Nordeste 17 Nordeste 0 -- -- 63
2017-09-07 13:00:00 -- 8 Nordeste 18 Nordeste 0.2 -- -- 72
2017-09-07 12:00:00 -- 12 Nordeste 19 Nordeste 0.4 -- -- 82
2017-09-07 11:00:00 -- 6 Oeste 17 Oeste 0 -- -- 70
2017-09-07 10:00:00 -- 3 Sudoeste 10 Este 0 -- -- 90
2017-09-07 09:00:00 -- 3 Sur 7 Nordeste 0 -- -- 94
2017-09-07 08:00:00 -- 4 Nordeste 8 Noroeste 0 -- -- 92
2017-09-07 07:00:00 -- 5 Nordeste 9 Nordeste 0 -- -- 91
2017-09-07 06:00:00 -- 2 Este 4 Sudeste 0 -- -- 90
2017-09-07 05:00:00 -- 2 Nordeste 5 Nordeste 0 -- -- 90
2017-09-07 04:00:00 -- 3 Nordeste 5 Nordeste 0 -- -- 89
2017-09-07 03:00:00 20.8 4 Nordeste 7 Este 0 -- -- 86
2017-09-07 02:00:00 21.4 2 Este 5 Este 0 -- -- 88
2017-09-07 01:00:00 21.7 0 Calma 5 Norte 0 -- -- 87
2017-09-07 00:00:00 22.3 4 Norte 10 Nordeste 0 -- -- 83
2017-09-06 23:00:00 23 5 Nordeste 10 Norte 0 -- -- 80
2017-09-06 22:00:00 24.4 5 Norte 11 Norte 0 -- -- 72
2017-09-06 21:00:00 25.8 6 Noroeste 14 Norte 0 -- -- 66
2017-09-06 20:00:00 27.5 10 Norte 18 Nordeste 0 -- -- 57
2017-09-06 19:00:00 30 9 Norte 20 Norte 0 -- -- 45
2017-09-06 18:00:00 31.2 12 Sudeste 25 Sudeste 0 -- -- 43
2017-09-06 17:00:00 32.9 12 Sudeste 24 Sur 0 -- -- 37
2017-09-06 16:00:00 32.9 9 Sur 22 Sur 0 -- -- 35
2017-09-06 15:00:00 31.6 3 Nordeste 12 Noroeste 0 -- -- 36
2017-09-06 14:00:00 30.8 4 Este 12 Nordeste 0 -- -- 40
2017-09-06 13:00:00 28.5 3 Nordeste 11 Nordeste 0 -- -- 51
2017-09-06 12:00:00 26.1 6 Nordeste 14 Norte 0 -- -- 65
2017-09-06 11:00:00 24.1 7 Norte 13 Norte 0 -- -- 76
2017-09-06 10:00:00 22.9 9 Nordeste 13 Nordeste 0 -- -- 80
2017-09-06 09:00:00 20.5 4 Norte 8 Nordeste 0 -- -- 86
2017-09-06 08:00:00 19.1 3 Nordeste 6 Nordeste 0 -- -- 93
2017-09-06 07:00:00 19.2 4 Este 7 Este 0 -- -- 92
2017-09-06 06:00:00 19.3 3 Nordeste 6 Nordeste 0 -- -- 92
2017-09-06 05:00:00 19.2 5 Nordeste 7 Nordeste 0 -- -- 90
2017-09-06 04:00:00 19.7 5 Este 6 Este 0 -- -- 90
2017-09-06 03:00:00 20 4 Sudoeste 7 Sudoeste 0 -- -- 89
2017-09-06 02:00:00 20.7 4 Sudoeste 6 Sudoeste 0 -- -- 87
2017-09-06 01:00:00 21.4 3 Sur 5 Sudoeste 0 -- -- 85
2017-09-06 00:00:00 22.1 3 Sur 6 Sur 0 -- -- 84
2017-09-05 23:00:00 23.3 4 Sudoeste 10 Sudoeste 0 -- -- 81
2017-09-05 22:00:00 24.7 7 Sudoeste 13 Sudoeste 0 -- -- 74
2017-09-05 21:00:00 26.8 7 Oeste 18 Sudeste 0 -- -- 61
2017-09-05 20:00:00 29.1 7 Sur 28 Sudeste 0 -- -- 49
2017-09-05 19:00:00 30.6 14 Sur 24 Sur 0 -- -- 44
2017-09-05 18:00:00 32 13 Sur 26 Sudeste 0 -- -- 39
2017-09-05 17:00:00 32.5 9 Sur 25 Sur 0 -- -- 39
2017-09-05 16:00:00 32.2 12 Sudoeste 31 Sur 0 -- -- 38
2017-09-05 15:00:00 31.4 7 Este 15 Noroeste 0 -- -- 43
2017-09-05 14:00:00 29.6 6 Nordeste 11 Este 0 -- -- 54
2017-09-05 13:00:00 28.1 4 Nordeste 15 Este 0 -- -- 60
2017-09-05 12:00:00 26.8 7 Nordeste 18 Nordeste 0 -- -- 65
2017-09-05 11:00:00 25.6 10 Nordeste 17 Nordeste 0 -- -- 73
2017-09-05 10:00:00 23.8 9 Norte 12 Nordeste 0 -- -- 86
2017-09-05 09:00:00 21.8 3 Nordeste 7 Norte 0 -- -- 96
2017-09-05 08:00:00 20.9 5 Norte 8 Nordeste 0 -- -- 97
2017-09-05 07:00:00 21.3 4 Norte 10 Nordeste 0 -- -- 95
2017-09-05 06:00:00 21.8 5 Nordeste 10 Nordeste 0 -- -- 94
2017-09-05 05:00:00 22.5 6 Nordeste 10 Nordeste 0 -- -- 94
2017-09-05 04:00:00 22.4 4 Norte 10 Nordeste 0 -- -- 93
2017-09-05 03:00:00 22.4 6 Nordeste 10 Este 0 -- -- 94
2017-09-05 02:00:00 21.8 7 Nordeste 8 Nordeste 0 -- -- 94
2017-09-05 01:00:00 22.4 3 Norte 14 Norte 0 -- -- 93
2017-09-05 00:00:00 23.1 13 Norte 21 Norte 0 -- -- 91
2017-09-04 23:00:00 23.6 13 Norte 22 Nordeste 0 -- -- 88
2017-09-04 22:00:00 24.5 14 Nordeste 27 Nordeste 0 -- -- 80
2017-09-04 21:00:00 25.6 15 Nordeste 31 Nordeste 0 -- -- 73
2017-09-04 20:00:00 27.7 16 Nordeste 30 Norte 0 -- -- 65
2017-09-04 19:00:00 32.6 5 Norte 20 Sudeste 0 -- -- 42
2017-09-04 18:00:00 34.1 9 Sudeste 25 Sudeste 0 -- -- 37
2017-09-04 17:00:00 33.9 11 Sur 37 Sur 0 -- -- 41
2017-09-04 16:00:00 33.6 8 Nordeste 26 Nordeste 0 -- -- 38
2017-09-04 15:00:00 34 10 Norte 21 Norte 0 -- -- 37
2017-09-04 14:00:00 33.1 6 Norte 13 Norte 0 -- -- 30
2017-09-04 13:00:00 31.7 3 Este 8 Oeste 0 -- -- 43
2017-09-04 12:00:00 29.3 3 Sur 6 Sudoeste 0 -- -- 49
2017-09-04 11:00:00 26.5 3 Sudoeste 12 Sudoeste 0 -- -- 62
2017-09-04 10:00:00 23.4 5 Sudoeste 10 Sudoeste 0 -- -- 81
2017-09-04 09:00:00 20 4 Sudoeste 9 Sudoeste 0 -- -- 96
2017-09-04 08:00:00 18.9 6 Sudoeste 9 Sudoeste 0 -- -- 96
2017-09-04 07:00:00 19.4 3 Sudoeste 8 Sur 0 -- -- 94
2017-09-04 06:00:00 20.1 5 Sur 6 Sur 0 -- -- 92
2017-09-04 05:00:00 20.4 0 Calma 4 Sudoeste 0 -- -- 91
2017-09-04 04:00:00 20.9 2 Sudoeste 6 Sudeste 0 -- -- 88
2017-09-04 03:00:00 21.3 3 Sur 8 Sur 0 -- -- 86
2017-09-04 02:00:00 22.4 5 Sur 21 Sudoeste 0 -- -- 80
2017-09-04 01:00:00 23.7 10 Sudoeste 22 Sur 0 -- -- 73
2017-09-04 00:00:00 24.3 13 Sudoeste 24 Sudoeste 0 -- -- 71
2017-09-03 23:00:00 24.9 13 Sudoeste 30 Sur 0 -- -- 66
2017-09-03 22:00:00 25.4 19 Sur 34 Sur 0 -- -- 65
2017-09-03 21:00:00 26.2 22 Sur 34 Sur 0 -- -- 64
2017-09-03 20:00:00 27.5 17 Sur 26 Sur 0 -- -- 53
2017-09-03 19:00:00 27.9 10 Sudoeste 24 Sudoeste 0 -- -- 60
2017-09-03 18:00:00 31.5 13 Sur 29 Sudoeste 0 -- -- 51
2017-09-03 17:00:00 30.5 12 Sur 28 Sudoeste 0 -- -- 53
2017-09-03 16:00:00 30.9 15 Sudoeste 29 Sur 0 -- -- 53
2017-09-03 15:00:00 30.3 9 Sudoeste 26 Sur 0 -- -- 49
2017-09-03 14:00:00 29.7 12 Sudoeste 25 Sudoeste 0 -- -- 55
2017-09-03 13:00:00 27.7 9 Sudoeste 20 Sudoeste 0 -- -- 62
2017-09-03 12:00:00 26.5 13 Sudoeste 23 Sudoeste 0 -- -- 65
2017-09-03 11:00:00 24.6 13 Sudoeste 26 Sudoeste 0 -- -- 75
2017-09-03 10:00:00 23.1 14 Sur 23 Sur 0 -- -- 81
2017-09-03 09:00:00 21.5 7 Sudoeste 15 Oeste 0 -- -- 89
2017-09-03 08:00:00 20.7 3 Sur 5 Sur 0 -- -- 92
2017-09-03 07:00:00 20.6 0 Calma 5 Sudoeste 0 -- -- 91
2017-09-03 06:00:00 20.7 3 Oeste 6 Oeste 0 -- -- 91
2017-09-03 05:00:00 20.6 2 Sudoeste 4 Sur 0 -- -- 93
2017-09-03 04:00:00 20.3 0 Calma 4 Oeste 0 -- -- 93
2017-09-03 03:00:00 20.2 3 Nordeste 3 Nordeste 0 -- -- 93
2017-09-03 02:00:00 20.2 3 Nordeste 5 Nordeste 0 -- -- 92
2017-09-03 01:00:00 20.6 2 Sudeste 8 Este 0 -- -- 90
2017-09-03 00:00:00 21 6 Este 8 Este 0 -- -- 88
2017-09-02 23:00:00 21.6 4 Nordeste 9 Sur 0 -- -- 86
2017-09-02 22:00:00 22.3 7 Sur 24 Sudoeste 0 -- -- 80
2017-09-02 21:00:00 23.2 12 Sudoeste 27 Sudoeste 0 -- -- 76
2017-09-02 20:00:00 24.9 12 Sudoeste 25 Sur 0 -- -- 65
2017-09-02 19:00:00 26.9 15 Sur 25 Sur 0 -- -- 58
2017-09-02 18:00:00 28.7 8 Sur 21 Sudoeste 0 -- -- 55
2017-09-02 17:00:00 28.6 5 Noroeste 13 Oeste 0 -- -- 53
2017-09-02 16:00:00 27.7 3 Este 14 Nordeste 0 -- -- 54
2017-09-02 15:00:00 27.9 5 Noroeste 13 Noroeste 0 -- -- 55
2017-09-02 14:00:00 26.8 6 Sudoeste 17 Noroeste 0 -- -- 59
2017-09-02 13:00:00 25.2 5 Nordeste 16 Nordeste 0 -- -- 63
2017-09-02 12:00:00 24.5 10 Norte 22 Nordeste 0 -- -- 66
2017-09-02 11:00:00 23.7 13 Nordeste 23 Nordeste 0 -- -- 70
2017-09-02 10:00:00 22.3 15 Nordeste 24 Nordeste 0 -- -- 81
2017-09-02 09:00:00 21.5 6 Nordeste 14 Nordeste 0 -- -- 90
2017-09-02 08:00:00 21.3 5 Nordeste 14 Nordeste 0 -- -- 89
2017-09-02 07:00:00 21.9 8 Nordeste 17 Norte 0 -- -- 92
2017-09-02 06:00:00 22.4 4 Nordeste 6 Nordeste 0 -- -- 87
2017-09-02 05:00:00 22.6 0 Calma 5 Sur 0 -- -- 88
2017-09-02 04:00:00 22.7 0 Calma 10 Este 0 -- -- 84
2017-09-02 03:00:00 22.7 6 Nordeste 12 Nordeste 0 -- -- 83
2017-09-02 02:00:00 22.9 8 Nordeste 15 Nordeste 0 -- -- 83
2017-09-02 01:00:00 23.2 5 Nordeste 10 Nordeste 0 -- -- 82
2017-09-02 00:00:00 23.5 6 Nordeste 10 Este 0 -- -- 81
2017-09-01 23:00:00 24.3 2 Sudeste 14 Sur 0 -- -- 77
2017-09-01 22:00:00 24.5 6 Este 15 Sudoeste 0 -- -- 76
2017-09-01 21:00:00 25.4 8 Sudoeste 32 Sudeste 0 -- -- 71
2017-09-01 20:00:00 26.1 11 Este 27 Sudeste 0 -- -- 66
2017-09-01 19:00:00 27.6 8 Este 22 Norte 0 -- -- 62
2017-09-01 18:00:00 28.6 13 Nordeste 27 Este 0 -- -- 59
2017-09-01 17:00:00 28.6 9 Nordeste 24 Nordeste 0 -- -- 60
2017-09-01 16:00:00 28.7 14 Este 31 Este 0 -- -- 60
2017-09-01 15:00:00 28.6 13 Este 24 Este 0 -- -- 61
2017-09-01 14:00:00 27.8 10 Nordeste 26 Nordeste 0 -- -- 60
2017-09-01 13:00:00 27.5 13 Nordeste 24 Nordeste 0 -- -- 59
2017-09-01 12:00:00 26.8 12 Nordeste 20 Nordeste 0 -- -- 63
2017-09-01 11:00:00 25.5 10 Nordeste 16 Nordeste 0 -- -- 71
2017-09-01 10:00:00 24 7 Nordeste 12 Nordeste 0 -- -- 74
2017-09-01 09:00:00 22 5 Nordeste 13 Nordeste 0 -- -- 85
2017-09-01 08:00:00 20.7 5 Nordeste 17 Norte 0 -- -- 91
2017-09-01 07:00:00 20.8 8 Nordeste 10 Nordeste 0 -- -- 94
2017-09-01 06:00:00 21.2 5 Nordeste 10 Norte 0 -- -- 94
2017-09-01 05:00:00 21.8 7 Nordeste 13 Nordeste 0 -- -- 91
2017-09-01 04:00:00 21.7 6 Nordeste 10 Nordeste 0 -- -- 93
2017-09-01 03:00:00 21.5 4 Norte 6 Nordeste 0 -- -- 94
2017-09-01 02:00:00 21.8 0 Calma 3 Este 0 -- -- 92
2017-09-01 01:00:00 21.4 2 Norte 5 Norte 0 -- -- 92
2017-09-01 00:00:00 21.6 5 Norte 11 Nordeste 0 -- -- 90
2017-08-31 23:00:00 22.3 0 Calma 5 Nordeste 0 -- -- 85
2017-08-31 22:00:00 23.2 0 Calma 10 Nordeste 0 -- -- 82
2017-08-31 21:00:00 24.3 9 Nordeste 18 Nordeste 0 -- -- 73
2017-08-31 20:00:00 26.2 12 Nordeste 21 Nordeste 0 -- -- 59
2017-08-31 19:00:00 28.5 11 Norte 19 Nordeste 0 -- -- 50
2017-08-31 18:00:00 29.4 12 Nordeste 22 Nordeste 0 -- -- 49
2017-08-31 17:00:00 29.9 14 Nordeste 23 Nordeste 0 -- -- 52
2017-08-31 16:00:00 30.1 5 Noroeste 14 Norte 0 -- -- 44
2017-08-31 15:00:00 29.2 5 Nordeste 14 Nordeste 0 -- -- 46
2017-08-31 14:00:00 28 7 Nordeste 15 Nordeste 0 -- -- 52
2017-08-31 13:00:00 26 10 Nordeste 14 Nordeste 0 -- -- 64
2017-08-31 12:00:00 25.6 8 Nordeste 19 Nordeste 0 -- -- 67
2017-08-31 11:00:00 24.5 11 Nordeste 20 Nordeste 0 -- -- 68
2017-08-31 10:00:00 21.4 6 Norte 8 Norte 0 -- -- 94
2017-08-31 09:00:00 20.5 3 Nordeste 14 Este 0.2 -- -- 94
2017-08-31 08:00:00 19.9 6 Norte 9 Nordeste 0 -- -- 95
2017-08-31 07:00:00 19.8 8 Este 14 Este 0 -- -- 97
2017-08-31 06:00:00 19.5 4 Sur 5 Sur 0 -- -- 96
2017-08-31 05:00:00 19.7 4 Sudoeste 6 Sur 0 -- -- 96
2017-08-31 04:00:00 19.6 5 Sudoeste 8 Sudoeste 0 -- -- 96
2017-08-31 03:00:00 19.4 0 Calma 6 Sudeste 0 -- -- 96
2017-08-31 02:00:00 19.9 6 Sur 10 Sur 0 -- -- 94
2017-08-31 01:00:00 20.1 8 Sur 11 Sur 0 -- -- 95
2017-08-31 00:00:00 20.1 6 Sudoeste 13 Sur 0 -- -- 95
2017-08-30 23:00:00 20.4 6 Sur 9 Sur 0 -- -- 93
2017-08-30 22:00:00 21.3 3 Sudoeste 6 Sudoeste 0 -- -- 91
2017-08-30 21:00:00 21.7 4 Sudoeste 12 Sudoeste 0 -- -- 87
2017-08-30 20:00:00 23.5 3 Noroeste 9 Norte 0 -- -- 76
2017-08-30 19:00:00 23.8 7 Norte 12 Nordeste 0 -- -- 75
2017-08-30 18:00:00 24 7 Norte 15 Nordeste 0 -- -- 73
2017-08-30 17:00:00 22.2 9 Norte 37 Sur 0 -- -- 81
2017-08-30 16:00:00 20 18 Sur 39 Sur 0.4 -- -- 86
2017-08-30 15:00:00 19.1 23 Sur 37 Sur 1.6 -- -- 85
2017-08-30 14:00:00 19.4 12 Sudoeste 27 Sudoeste 1.8 -- -- 96
2017-08-30 13:00:00 19.4 5 Sudoeste 13 Nordeste 0.6 -- -- 96
2017-08-30 12:00:00 18.8 9 Nordeste 19 Nordeste 1.6 -- -- 98
2017-08-30 11:00:00 19 10 Nordeste 15 Nordeste 2.4 -- -- 98
2017-08-30 10:00:00 18.8 0 Calma 14 Este 0.6 -- -- 98
2017-08-30 09:00:00 18.7 4 Nordeste 10 Nordeste 0.4 -- -- 98
2017-08-30 08:00:00 18.5 3 Este 5 Oeste 0.4 -- -- 98
2017-08-30 07:00:00 18.5 4 Noroeste 16 Este 0.2 -- -- 98
2017-08-30 06:00:00 18.5 8 Norte 22 Nordeste 1.4 -- -- 98
2017-08-30 05:00:00 18.8 3 Norte 14 Nordeste 1.6 -- -- 98
2017-08-30 04:00:00 18.8 0 Calma 8 Norte 0 -- -- 97
2017-08-30 03:00:00 18.9 5 Norte 13 Este 0 -- -- 96
2017-08-30 02:00:00 18.9 5 Nordeste 18 Oeste 0.8 -- -- 95
2017-08-30 01:00:00 18.7 9 Sudoeste 19 Sudoeste 1.2 -- -- 96
2017-08-30 00:00:00 18.9 8 Oeste 14 Oeste 1.6 -- -- 95
2017-08-29 23:00:00 19.3 6 Sudoeste 20 Sudoeste 3 -- -- 95
2017-08-29 22:00:00 19.9 10 Sur 22 Sur 11.6 -- -- 91
2017-08-29 21:00:00 22.2 3 Sur 8 Sudoeste 2.2 -- -- 89
2017-08-29 20:00:00 23 3 Nordeste 20 Nordeste 0.6 -- -- 86
2017-08-29 19:00:00 24.4 8 Nordeste 15 Nordeste 0 -- -- 72
2017-08-29 18:00:00 25.4 4 Norte 10 Este 0 -- -- 62
2017-08-29 17:00:00 25.7 3 Nordeste 10 Sur 0 -- -- 60
2017-08-29 16:00:00 23 6 Sudoeste 18 Sur 0 -- -- 76
2017-08-29 15:00:00 21.9 12 Sudoeste 25 Sudoeste 0 -- -- 84
2017-08-29 14:00:00 22.2 5 Sur 16 Sudoeste 0.4 -- -- 90
2017-08-29 13:00:00 23.4 8 Sur 23 Sur 0 -- -- 85
2017-08-29 12:00:00 22.2 6 Sudoeste 11 Sudoeste 0 -- -- 91
2017-08-29 11:00:00 21.4 6 Nordeste 11 Nordeste 4.6 -- -- 93
2017-08-29 10:00:00 21.4 3 Oeste 9 Sudeste 0 -- -- 94
2017-08-29 09:00:00 20.7 4 Noroeste 8 Sur 0.2 -- -- 94
2017-08-29 08:00:00 20.2 3 Sudoeste 5 Sur 0 -- -- 94
2017-08-29 07:00:00 20.3 3 Norte 11 Nordeste 0 -- -- 92
2017-08-29 06:00:00 21 3 Este 6 Sudeste 0 -- -- 91
2017-08-29 05:00:00 21 0 Calma 17 Este 0.6 -- -- 90
2017-08-29 04:00:00 21.2 2 Sudeste 5 Sudoeste 0 -- -- 84
2017-08-29 03:00:00 21.6 0 Calma 10 Sur 0 -- -- 81
2017-08-29 02:00:00 21.8 4 Nordeste 8 Este 0 -- -- 76
2017-08-29 01:00:00 21.8 4 Sudoeste 9 Sur 0 -- -- 79
2017-08-29 00:00:00 22.6 4 Sur 9 Oeste 0 -- -- 77
2017-08-28 23:00:00 24.2 3 Noroeste 19 Sudeste 0 -- -- 68
2017-08-28 22:00:00 24.8 9 Sur 22 Sudeste 0 -- -- 64
2017-08-28 21:00:00 25.8 11 Sur 23 Sur 0 -- -- 59
2017-08-28 20:00:00 26.8 16 Sur 26 Sur 0 -- -- 60
2017-08-28 19:00:00 26.7 18 Sur 34 Sur 0 -- -- 66
2017-08-28 18:00:00 29 9 Sur 23 Sudeste 0 -- -- 47
2017-08-28 17:00:00 28.8 13 Sur 27 Sur 0 -- -- 51
2017-08-28 16:00:00 27.7 9 Sudoeste 21 Sur 0.2 -- -- 57
2017-08-28 15:00:00 25.5 19 Sur 43 Sur 0 -- -- 73
2017-08-28 14:00:00 25.6 11 Sur 23 Sur 0 -- -- 73
2017-08-28 13:00:00 25.4 10 Sudoeste 24 Sur 0 -- -- 72
2017-08-28 12:00:00 25.2 5 Noroeste 27 Sudoeste 0.4 -- -- 85
2017-08-28 11:00:00 24.8 10 Sudoeste 23 Sudoeste 0.6 -- -- 84
2017-08-28 10:00:00 25.5 3 Sudoeste 8 Oeste 0 -- -- 79
2017-08-28 09:00:00 23.6 6 Norte 12 Nordeste 0 -- -- 85
2017-08-28 08:00:00 23.1 9 Nordeste 15 Este 0 -- -- 88
2017-08-28 07:00:00 23.4 8 Nordeste 14 Este 0 -- -- 85
2017-08-28 06:00:00 22.9 2 Noroeste 7 Nordeste 0 -- -- 85
2017-08-28 05:00:00 23.5 2 Sudoeste 12 Sur 0 -- -- 84
2017-08-28 04:00:00 24.3 4 Sudeste 12 Este 0 -- -- 79
2017-08-28 03:00:00 24.5 10 Este 19 Sur 0 -- -- 78
2017-08-28 02:00:00 25 17 Sur 28 Sur 0 -- -- 80
2017-08-28 01:00:00 24.6 7 Sudeste 20 Sudoeste 0 -- -- 65
2017-08-28 00:00:00 25.4 5 Sudoeste 16 Sudoeste 0 -- -- 75
2017-08-27 23:00:00 26.6 6 Este 15 Norte 0 -- -- 69
2017-08-27 22:00:00 28.5 10 Norte 19 Nordeste 0 -- -- 49
2017-08-27 21:00:00 29.2 8 Nordeste 14 Este 0 -- -- 50
2017-08-27 20:00:00 29 7 Nordeste 13 Este 0 -- -- 51
2017-08-27 19:00:00 30 9 Nordeste 21 Norte 0 -- -- 46
2017-08-27 18:00:00 31.3 12 Nordeste 19 Nordeste 0 -- -- 45
2017-08-27 17:00:00 30.6 14 Norte 23 Nordeste 0 -- -- 51
2017-08-27 16:00:00 29.2 12 Nordeste 20 Nordeste 0 -- -- 61
2017-08-27 15:00:00 28.7 10 Nordeste 17 Nordeste 0 -- -- 63
2017-08-27 14:00:00 28.8 10 Nordeste 16 Nordeste 0 -- -- 63
2017-08-27 13:00:00 29.2 3 Sudeste 10 Nordeste 0 -- -- 58
2017-08-27 12:00:00 28.1 3 Noroeste 9 Sudoeste 0 -- -- 63
2017-08-27 11:00:00 26.7 4 Sudoeste 10 Sudoeste 0 -- -- 70
2017-08-27 10:00:00 24.8 4 Nordeste 6 Nordeste 0 -- -- 79
2017-08-27 09:00:00 23.3 4 Sudoeste 8 Oeste 0 -- -- 82
2017-08-27 08:00:00 22 3 Norte 9 Nordeste 0 -- -- 90
2017-08-27 07:00:00 22.1 4 Norte 11 Nordeste 0 -- -- 89
2017-08-27 06:00:00 22.5 5 Norte 9 Este 0 -- -- 88
2017-08-27 05:00:00 22.8 4 Este 9 Sudoeste 0 -- -- 89
2017-08-27 04:00:00 22.9 8 Sudoeste 13 Sudoeste 0 -- -- 87
2017-08-27 03:00:00 23.6 8 Sudoeste 13 Sudoeste 0 -- -- 84
2017-08-27 02:00:00 25 2 Sur 23 Nordeste 0 -- -- 74
2017-08-27 01:00:00 25.1 13 Nordeste 29 Este 0 -- -- 79
2017-08-27 00:00:00 24.6 7 Noroeste 11 Noroeste 0 -- -- 69
2017-08-26 23:00:00 24.8 4 Este 8 Este 0 -- -- 66
2017-08-26 22:00:00 26 3 Norte 15 Norte 0 -- -- 66
2017-08-26 21:00:00 27.2 12 Norte 27 Nordeste 0 -- -- 58
2017-08-26 20:00:00 28.7 19 Nordeste 29 Nordeste 0 -- -- 56
2017-08-26 19:00:00 30.8 13 Norte 24 Norte 0 -- -- 43
2017-08-26 18:00:00 33.4 12 Norte 28 Norte 0 -- -- 39
2017-08-26 17:00:00 34.6 15 Nordeste 24 Norte 0 -- -- 39
2017-08-26 16:00:00 34.3 11 Nordeste 26 Nordeste 0 -- -- 42
2017-08-26 15:00:00 33.9 12 Norte 23 Norte 0 -- -- 44
2017-08-26 14:00:00 32.1 8 Nordeste 16 Norte 0 -- -- 50
2017-08-26 13:00:00 30.7 4 Norte 15 Nordeste 0 -- -- 57
2017-08-26 12:00:00 29.3 5 Nordeste 14 Nordeste 0 -- -- 63
2017-08-26 11:00:00 27.3 5 Nordeste 13 Norte 0 -- -- 68
2017-08-26 10:00:00 25.7 6 Nordeste 9 Nordeste 0 -- -- 77
2017-08-26 09:00:00 24.1 3 Norte 9 Nordeste 0 -- -- 84
2017-08-26 08:00:00 22 8 Este 10 Este 0 -- -- 87
2017-08-26 07:00:00 22 5 Nordeste 9 Norte 0 -- -- 86
2017-08-26 06:00:00 22.6 3 Norte 12 Nordeste 0 -- -- 83
2017-08-26 05:00:00 23.1 5 Este 9 Este 0 -- -- 81
2017-08-26 04:00:00 22.8 2 Este 4 Este 0 -- -- 83
2017-08-26 03:00:00 23.3 0 Calma 4 Sudoeste 0 -- -- 79
2017-08-26 02:00:00 23.5 0 Calma 6 Sur 0 -- -- 76
2017-08-26 01:00:00 23.8 2 Sudoeste 7 Este 0 -- -- 73
2017-08-26 00:00:00 25 4 Sudeste 5 Sudeste 0 -- -- 69